Race Coverage Navigation

TS # 21 / Kim, CO  2019

 


TS STATS
TS Distance 71.31 
Total Distance 1272.31 
Miles To Go 1797.97 
TS Climbing 1223 
Total Climbing
TS  Elevation
TS  Net Elevation 1932 
Map Filename Open Map 
Directions Filename  
Latitude 37.25 
Longitude -103.36 
Google Map  TimeStation Map 


TS Arrival Data
Arr Ord  #/Name Arrival DT TS Dst Avg This TS Avg Overall
 1 377 - Christoph Strasser  06/14/2019 17:52 71.31  18.93  17.38 
 2 279 - Marko Baloh  06/15/2019 4:46 71.31  14.86  15.12 
 3 609 - Jakob Olsen  06/15/2019 8:26 71.31  12.62  14.44 
 4 288 - Dave Haase  06/15/2019 8:55 71.31  17.61  14.41 
 5 617 - SOLO.kiwi (Craig Harper)  06/15/2019 12:41 71.31  14.7  13.76 
 6 529 - Isa Pulver  06/15/2019 13:42 71.31  12.66  13.59 
 7 612 - Markus K. Brandl  06/15/2019 17:33 71.31  11.6  13.08 
 8 329 - Peter Oyler  06/15/2019 19:12 71.31  12.58  12.9 
 9 622 - Thomas Odom-Team Kyle Pease Foundation  06/15/2019 19:46 71.31  14.96  12.77 
 10 416 - Leah Goldstein  06/15/2019 22:19 71.31  12.44  12.45 
 11 623 - Ultra Paka Racing Team (Daniel Polman)  06/15/2019 22:41 71.31  11.06  12.41 
 12 367 - Daniela Genovesi  06/16/2019 1:22 71.31  15.28  12.09 
 13 615 - Philipp Amhof  06/16/2019 4:12 71.31  9.05  11.79 
 14 604 - Chieko Ozawa  06/16/2019 4:23 71.31  11.47  11.74 
 15 603 - Alan Bradley  06/16/2019 4:26 71.31  15.34  11.78 
 16 568 - Alexandra Meixner  06/16/2019 6:19 71.31  8.28  11.54 
 17 611 - Marcelo Soares " MIXIRICA "  06/16/2019 7:59 71.31  17.05  11.39 
 18 442 - Joe Barr  06/16/2019 8:45 71.31  15.96  11.34 
 19 559 - Team Martin RAAM 2019 (Martin Bergmeister)  06/16/2019 9:38 71.31  7.49  11.24 
 20 411 - Geoff Brunner  06/16/2019 11:02 71.31  7.52  11.11 
 21 510 - John C. Tarlton  06/16/2019 11:30 71.31  12.93  11.06 
 22 610 - Kabir Rachure  06/16/2019 15:32 71.31  12.02  10.67 
 23 399 - Valerio Zamboni  06/16/2019 18:14 71.31  10.75  10.46 
 24 539 - Kari Rouvinen  06/16/2019 20:31 71.31  11.98  10.26 
 25 424 - Team i RON man Veterans supporting Veterans  06/16/2019 21:52 71.31  11.63  10.15 
 26 527 - TALABARDON (Herve Talabardon)  06/17/2019 0:17 71.31  8.9  9.95 
 27 618 - GREGORY ROBINSON  06/17/2019 0:32 71.31  13.12  9.92 
 28 608 - Elin Starup  06/17/2019 1:19 71.31  9.66  9.84 
 29 161 - Seana Hogan  06/17/2019 5:20 71.31  15.56  9.55 
 30 607 - Sabine Bird (Team Bean)  06/17/2019 9:58 71.31  6.85  9.22 
 31 605 - Christian Echavarria  06/17/2019 11:46 71.31  6.77  9.13 
 32 T411 - team alpha - tischlerei groemmer  06/18/2019 0:20 71.31  22.28  22.33 
 33 T800 - Backstedt Racing Project 14  06/18/2019 1:01 71.31  23.9  22.11 
 34 T401 - Data Techniques powered by Networks Centre  06/18/2019 3:25 71.31  22.52  21.12 
 35 T404 - Gentlemen of speed  06/18/2019 3:51 71.31  23.9  20.99 
 36 T201 - EAT WELL  06/18/2019 7:35 71.31  20.97  19.71 
 37 T805 - Team Oceanside  06/18/2019 8:08 71.31  20.67  19.71 
 38 T407 - Julian Becker   06/18/2019 8:57 71.31  21.94  19.38 
 39 T807 - Team ZOE International  06/18/2019 9:02 71.31  21.72  19.44 
 40 T412 - Team Aspect  06/18/2019 10:18 71.31  23  19.01 
 41 T802 - Scorchers  06/18/2019 10:36 71.31  23.38  18.97 
 42 T416 - Team Rotary Raams Polio  06/18/2019 10:58 71.31  21.83  18.84 
 43 T408 - Radeln-fuer-Kinder (Cycling-for-Kids)  06/18/2019 11:46 71.31  23.25  18.58 
 44 T804 - Team FSHD Skyland Trail  06/18/2019 11:51 71.31  22.17  18.63 
 45 T400 - Cantastic4  06/18/2019 12:16 71.31  20.67  18.41 
 46 T406 - Operation Walk Midwest  06/18/2019 12:33 71.31  20.47  18.36 
 47 T808 - Antonia's Friends 2019  06/18/2019 12:53 71.31  20.18  18.37 
 48 T418 - The Opportunists  06/18/2019 15:30 71.31  17.75  17.66 
 49 T410 - Soap-Aid  06/18/2019 16:45 71.31  20.37  17.33 
 50 T403 - EKJ Denmark  06/18/2019 17:28 71.31  18.85  17.14 
 51 T414 - Brazil Nuts  06/18/2019 17:50 71.31  16.39  17.09 
 52 T202 - Integra Medical - BAA Racing  06/18/2019 17:58 71.31  18.44  16.98 
 53 T803 - Team EndoPark  06/18/2019 18:45 71.31  17.54  16.92 
 54 T405 - High Rollers  06/18/2019 19:16 71.31  16.65  16.74 
 55 T206 - Project Linear Acceleration  06/18/2019 19:32 71.31  17.18  16.65 
 56 T415 - TEAM FIRE VELO 935  06/18/2019 21:00 71.31  15.01  16.4 
 57 T204 - Lucan CRC  06/18/2019 21:39 71.31  14.36  16.19 
 58 T413 - TEAM BRASIL - SKIPPER  06/18/2019 22:30 71.31  17.39  16.08 
 59 T806 - Team SuperMarrow  06/18/2019 23:48 71.31  19.19  15.86 
 60 T402 - EA/WFP RAAM Team  06/19/2019 0:03 71.31  18.93  15.74 
 61 T801 - Mind Over Matter  06/19/2019 1:07 71.31  16.65  15.59 
 62 T417 - Team4RAAM 2019 powered by TGW Living Logistics  06/19/2019 2:36 71.31  17.54  15.3 
 63 T200 - AIR RELAX GoPro TEAM BRASIL  06/19/2019 3:42 71.31  18.21  15.02 
 64 T207 - Team Life Time  06/19/2019 5:31 71.31  15.62  14.73 
 65 T409 - Serpentine Golden Girls  06/19/2019 7:53 71.31  15.34  14.37 
 66 T208 - Team Machine  06/19/2019 10:34 71.31  12.02  13.92 
 67 T203 - JPsDuo  06/19/2019 10:36 71.31  16.98  13.9 
 68 T210 - Bike Wine Team  06/19/2019 14:40 71.31  14.45  13.32 
 69 T205 - Prevent Breast Cancer powered by Endomag  06/19/2019 16:59 71.31  13.29  13